Time;durP1;ratioP1;P1;durP2;ratioP2;P2;SDS_P1;SDS_P2;PMS_P1;PMS_P2;Temp;Humidity;BMP_temperature;BMP_pressure;BME280_temperature;BME280_humidity;BME280_pressure;Samples;Min_cycle;Max_cycle;Signal;HPM_P1;HPM_P2
2021/07/28 00:00:42;;;;;;;3.30;3.10;;;;;24.50;99992.00;;;;2058591;28;20208;-65
2021/07/28 00:01:43;;;;;;;2.50;2.30;;;;;24.50;99979.00;;;;2058925;28;20241;-65
2021/07/28 00:02:43;;;;;;;3.00;2.80;;;;;24.50;99979.00;;;;2059277;28;20208;-65
2021/07/28 00:03:43;;;;;;;2.50;2.30;;;;;24.50;99979.00;;;;2049812;28;20702;-64
2021/07/28 00:04:44;;;;;;;3.03;2.83;;;;;24.50;99980.00;;;;2050030;28;20655;-65
2021/07/28 00:05:44;;;;;;;3.00;2.70;;;;;24.50;99974.00;;;;2058302;28;20568;-65
2021/07/28 00:06:44;;;;;;;3.57;3.33;;;;;24.50;99974.00;;;;2058670;28;20735;-65
2021/07/28 00:07:45;;;;;;;2.97;2.77;;;;;24.50;99981.00;;;;2059973;28;20207;-65
2021/07/28 00:08:45;;;;;;;2.67;2.47;;;;;24.50;99975.00;;;;2060206;28;20215;-65
2021/07/28 00:09:45;;;;;;;3.10;2.80;;;;;24.50;99980.00;;;;2060689;28;21247;-65
2021/07/28 00:10:46;;;;;;;2.80;2.60;;;;;24.50;99972.00;;;;2060063;28;20674;-65
2021/07/28 00:11:49;;;;;;;2.77;2.57;;;;;24.50;99982.00;;;;2060260;28;20218;-65
2021/07/28 00:12:49;;;;;;;2.80;2.45;;;;;24.50;99983.00;;;;2059589;28;20756;-64
2021/07/28 00:13:50;;;;;;;2.70;2.50;;;;;24.50;99982.00;;;;2059367;28;20210;-65
2021/07/28 00:14:50;;;;;;;3.23;2.93;;;;;24.50;99983.00;;;;2059345;28;20288;-65
2021/07/28 00:15:52;;;;;;;2.83;2.63;;;;;24.50;99976.00;;;;2063462;28;20378;-65
2021/07/28 00:16:52;;;;;;;3.00;2.80;;;;;24.50;99980.00;;;;2062050;28;20230;-65
2021/07/28 00:17:57;;;;;;;3.20;2.97;;;;;24.50;99977.00;;;;2060862;28;20226;-64
2021/07/28 00:20:17;;;;;;;2.72;2.53;;;;;24.50;99981.00;;;;2059527;28;20814;-65
2021/07/28 00:23:55;;;;;;;3.25;2.95;;;;;24.50;99969.00;;;;2059747;28;20211;-65
2021/07/28 00:24:56;;;;;;;2.80;2.60;;;;;24.50;99973.00;;;;2059987;28;20247;-65
2021/07/28 00:25:56;;;;;;;3.03;2.83;;;;;24.50;99973.00;;;;2060179;28;20230;-65
2021/07/28 00:26:59;;;;;;;2.80;2.60;;;;;24.50;99970.00;;;;2060654;28;20219;-65
2021/07/28 00:28:00;;;;;;;3.85;3.13;;;;;24.50;99979.00;;;;2060658;28;20273;-65
2021/07/28 00:29:00;;;;;;;2.93;2.73;;;;;24.50;99973.00;;;;2059782;28;20246;-65
2021/07/28 00:30:00;;;;;;;3.57;3.27;;;;;24.50;99969.00;;;;2059407;28;20211;-64
2021/07/28 00:31:01;;;;;;;2.53;2.33;;;;;24.50;99964.00;;;;2050583;28;20212;-65
2021/07/28 00:32:01;;;;;;;2.83;2.63;;;;;24.50;99963.00;;;;2049243;28;20250;-65
2021/07/28 00:33:01;;;;;;;2.67;2.47;;;;;24.50;99970.00;;;;2059579;28;20208;-65
2021/07/28 00:34:02;;;;;;;2.97;2.77;;;;;24.50;99977.00;;;;2059771;28;20218;-65
2021/07/28 00:35:02;;;;;;;2.90;2.67;;;;;24.50;99969.00;;;;2060573;28;20713;-65
2021/07/28 00:36:03;;;;;;;2.87;2.67;;;;;24.50;99967.00;;;;2060408;28;20235;-65
2021/07/28 00:37:03;;;;;;;3.37;2.80;;;;;24.50;99964.00;;;;2060449;28;20207;-65
2021/07/28 00:38:04;;;;;;;3.20;2.90;;;;;24.30;99978.00;;;;2049918;28;20343;-65
2021/07/28 00:39:05;;;;;;;3.08;2.88;;;;;24.40;99968.00;;;;2051108;28;20314;-64
2021/07/28 00:40:06;;;;;;;3.00;2.80;;;;;24.40;99969.00;;;;2059571;28;20218;-65
2021/07/28 00:41:07;;;;;;;2.60;2.40;;;;;24.50;99931.00;;;;2059114;28;20243;-65
2021/07/28 00:42:07;;;;;;;2.83;2.63;;;;;24.50;99963.00;;;;2059978;28;20289;-65
2021/07/28 00:43:11;;;;;;;3.27;2.97;;;;;24.50;99970.00;;;;2060558;28;20222;-64
2021/07/28 00:44:12;;;;;;;2.58;2.38;;;;;24.50;99968.00;;;;2060479;28;20336;-65
2021/07/28 00:45:12;;;;;;;3.20;2.90;;;;;24.50;99967.00;;;;2060411;28;20764;-65
2021/07/28 00:46:12;;;;;;;3.43;3.20;;;;;24.50;99959.00;;;;2060947;28;20583;-65
2021/07/28 00:47:14;;;;;;;2.80;2.60;;;;;24.50;99957.00;;;;2060273;28;20212;-65
2021/07/28 00:48:15;;;;;;;2.95;2.75;;;;;24.50;99965.00;;;;2061848;28;20222;-65
2021/07/28 00:49:15;;;;;;;3.27;3.07;;;;;24.50;99955.00;;;;2059652;28;20255;-65
2021/07/28 00:50:15;;;;;;;3.07;2.80;;;;;24.50;99956.00;;;;2059510;28;20255;-64
2021/07/28 00:51:16;;;;;;;3.00;2.70;;;;;24.50;99961.00;;;;2051889;28;20287;-65
2021/07/28 00:52:16;;;;;;;3.13;2.93;;;;;24.50;99955.00;;;;2051716;28;20845;-65
2021/07/28 00:53:19;;;;;;;2.90;2.70;;;;;24.50;99958.00;;;;2060536;28;20272;-65
2021/07/28 00:54:20;;;;;;;3.00;2.80;;;;;24.50;99951.00;;;;2051129;28;20235;-65
2021/07/28 00:55:20;;;;;;;2.80;2.60;;;;;24.50;99945.00;;;;2043379;29;20216;-65
2021/07/28 00:56:20;;;;;;;3.67;3.37;;;;;24.50;99937.00;;;;2043098;29;20334;-65
2021/07/28 00:57:21;;;;;;;3.23;2.93;;;;;24.50;99943.00;;;;2043091;29;20213;-65
2021/07/28 00:58:21;;;;;;;3.00;2.80;;;;;24.50;99946.00;;;;2051517;28;20235;-65
2021/07/28 00:59:22;;;;;;;3.13;2.83;;;;;24.50;99945.00;;;;2060581;28;20667;-65
2021/07/28 01:00:23;;;;;;;3.00;2.80;;;;;24.50;99942.00;;;;2043841;28;20233;-65
2021/07/28 01:01:23;;;;;;;2.67;2.47;;;;;24.50;99945.00;;;;2046266;28;20459;-65
2021/07/28 01:02:23;;;;;;;3.07;2.87;;;;;24.50;99937.00;;;;2062399;28;20685;-65
2021/07/28 01:03:24;;;;;;;2.80;2.60;;;;;24.50;99938.00;;;;2060393;28;20566;-65
2021/07/28 01:04:25;;;;;;;2.97;2.77;;;;;24.50;99942.00;;;;2060283;28;20211;-65
2021/07/28 01:05:25;;;;;;;3.00;2.80;;;;;24.50;99938.00;;;;2043715;29;20650;-65
2021/07/28 01:06:25;;;;;;;3.60;3.30;;;;;24.50;99938.00;;;;2043669;28;20226;-65
2021/07/28 01:07:26;;;;;;;3.37;3.07;;;;;24.50;99937.00;;;;2059452;28;20242;-65
2021/07/28 01:08:27;;;;;;;3.70;2.80;;;;;24.50;99934.00;;;;2059623;28;20225;-65
2021/07/28 01:09:30;;;;;;;2.47;2.27;;;;;24.50;99936.00;;;;2059564;28;20454;-65
2021/07/28 01:10:30;;;;;;;2.90;2.53;;;;;24.50;99932.00;;;;2059046;28;20216;-65
2021/07/28 01:11:31;;;;;;;2.80;2.60;;;;;24.50;99929.00;;;;2060237;28;20211;-64
2021/07/28 01:12:33;;;;;;;2.77;2.57;;;;;24.50;99942.00;;;;2060305;28;20758;-65
2021/07/28 01:13:36;;;;;;;3.20;3.00;;;;;24.50;99935.00;;;;2060394;28;20265;-65
2021/07/28 01:14:36;;;;;;;3.03;2.83;;;;;24.50;99934.00;;;;2059670;28;20253;-65
2021/07/28 01:16:38;;;;;;;2.70;2.50;;;;;24.50;99931.00;;;;2059538;28;20239;-65
2021/07/28 01:17:39;;;;;;;2.80;2.50;;;;;24.50;99931.00;;;;2059176;28;20226;-65
2021/07/28 01:18:40;;;;;;;3.23;3.00;;;;;24.50;99938.00;;;;2051406;28;20208;-65
2021/07/28 01:19:42;;;;;;;2.90;2.70;;;;;24.50;99937.00;;;;2043418;28;20205;-65
2021/07/28 01:20:46;;;;;;;3.15;2.90;;;;;24.50;99930.00;;;;2050467;28;20546;-64
2021/07/28 01:21:48;;;;;;;2.78;2.58;;;;;24.40;99936.00;;;;2051693;28;20244;-65
2021/07/28 01:22:48;;;;;;;3.00;2.80;;;;;24.50;99894.00;;;;2048967;28;20321;-64
2021/07/28 01:23:49;;;;;;;2.77;2.57;;;;;24.50;99938.00;;;;2041305;29;20243;-65
2021/07/28 01:24:50;;;;;;;2.67;2.47;;;;;24.50;99930.00;;;;2050537;28;20593;-64
2021/07/28 01:25:51;;;;;;;2.50;2.30;;;;;24.50;99934.00;;;;2050483;28;20220;-65
2021/07/28 01:26:51;;;;;;;3.00;2.80;;;;;24.40;99941.00;;;;2051400;28;20243;-65
2021/07/28 01:27:51;;;;;;;3.10;2.87;;;;;24.40;99937.00;;;;2051199;28;20531;-65
2021/07/28 01:28:52;;;;;;;3.10;2.80;;;;;24.40;99938.00;;;;2042829;29;20238;-65
2021/07/28 01:29:52;;;;;;;2.80;2.60;;;;;24.40;99934.00;;;;2053050;28;20230;-65
2021/07/28 01:30:59;;;;;;;2.73;2.53;;;;;24.40;99929.00;;;;2054259;28;20686;-65
2021/07/28 01:31:59;;;;;;;3.13;2.83;;;;;24.50;99931.00;;;;2060059;28;20582;-65
2021/07/28 01:33:00;;;;;;;3.23;2.93;;;;;24.50;99937.00;;;;2059497;28;20243;-65
2021/07/28 01:34:00;;;;;;;3.10;2.90;;;;;24.50;99934.00;;;;2051236;28;20735;-65
2021/07/28 01:35:01;;;;;;;2.97;2.77;;;;;24.40;99937.00;;;;2035663;29;20482;-65
2021/07/28 01:36:03;;;;;;;2.90;2.70;;;;;24.50;99931.00;;;;2043429;29;20232;-65
2021/07/28 01:37:04;;;;;;;2.80;2.60;;;;;24.40;99938.00;;;;2059668;28;20294;-65
2021/07/28 01:38:07;;;;;;;3.38;3.08;;;;;24.40;99931.00;;;;2050210;28;20302;-65
2021/07/28 01:39:08;;;;;;;2.90;2.70;;;;;24.50;99934.00;;;;2050667;28;20224;-65
2021/07/28 01:40:09;;;;;;;2.87;2.67;;;;;24.40;99937.00;;;;2058811;28;20606;-65
2021/07/28 01:41:09;;;;;;;2.97;2.78;;;;;24.40;99938.00;;;;2058269;28;20246;-64
2021/07/28 01:42:10;;;;;;;3.00;2.80;;;;;24.50;99931.00;;;;2059612;28;20219;-65
2021/07/28 01:43:16;;;;;;;3.00;2.80;;;;;24.50;99933.00;;;;2059536;28;20226;-65
2021/07/28 01:44:16;;;;;;;2.70;2.50;;;;;24.50;99934.00;;;;2059954;28;20227;-65
2021/07/28 01:45:17;;;;;;;3.20;2.90;;;;;24.50;99934.00;;;;2059386;28;20219;-65
2021/07/28 01:46:18;;;;;;;2.83;2.63;;;;;24.50;99935.00;;;;2058974;28;20226;-65
2021/07/28 01:47:18;;;;;;;3.20;2.90;;;;;24.50;99937.00;;;;2059075;28;20459;-65
2021/07/28 01:48:19;;;;;;;2.80;2.60;;;;;24.50;99932.00;;;;2057834;28;20355;-65
2021/07/28 01:49:19;;;;;;;2.57;2.37;;;;;24.40;99934.00;;;;2059425;28;20215;-65
2021/07/28 01:50:19;;;;;;;3.20;2.90;;;;;24.50;99935.00;;;;2059381;28;20211;-65
2021/07/28 01:51:20;;;;;;;3.20;2.90;;;;;24.50;99931.00;;;;2060019;28;20219;-65
2021/07/28 01:52:20;;;;;;;3.10;2.90;;;;;24.40;99934.00;;;;2059892;28;20289;-65
2021/07/28 01:53:21;;;;;;;3.43;3.13;;;;;24.50;99940.00;;;;2059595;28;20226;-65
2021/07/28 01:54:21;;;;;;;2.60;2.40;;;;;24.50;99938.00;;;;2059110;28;20207;-65
2021/07/28 01:55:21;;;;;;;3.47;3.17;;;;;24.50;99940.00;;;;2059268;28;20219;-65
2021/07/28 01:56:22;;;;;;;2.60;2.40;;;;;24.50;99937.00;;;;2059067;28;20235;-64
2021/07/28 01:57:22;;;;;;;3.00;2.80;;;;;24.50;99938.00;;;;2059107;28;20231;-65
2021/07/28 01:58:23;;;;;;;3.20;2.90;;;;;24.50;99930.00;;;;2059862;28;20215;-65
2021/07/28 01:59:25;;;;;;;2.97;2.77;;;;;24.50;99931.00;;;;2059438;28;20215;-65
2021/07/28 02:00:26;;;;;;;3.03;2.83;;;;;24.50;99932.00;;;;2069880;28;20222;-65
2021/07/28 02:01:26;;;;;;;2.80;2.60;;;;;24.50;99932.00;;;;2067821;28;20214;-65
2021/07/28 02:02:31;;;;;;;2.70;2.50;;;;;24.40;99921.00;;;;2070096;28;20214;-65
2021/07/28 02:03:31;;;;;;;2.88;2.67;;;;;24.40;99926.00;;;;2068004;28;20211;-65
2021/07/28 02:04:32;;;;;;;2.80;2.60;;;;;24.40;99928.00;;;;2067444;28;20249;-65
2021/07/28 02:05:33;;;;;;;2.73;2.53;;;;;24.50;99925.00;;;;2071006;28;20205;-65
2021/07/28 02:06:33;;;;;;;3.28;2.97;;;;;24.50;99922.00;;;;2070270;28;20276;-64
2021/07/28 02:07:33;;;;;;;2.80;2.60;;;;;24.40;99926.00;;;;2069548;28;20210;-65
2021/07/28 02:08:34;;;;;;;3.20;3.00;;;;;24.50;99919.00;;;;2059522;28;20650;-65
2021/07/28 02:09:34;;;;;;;2.67;2.47;;;;;24.40;99923.00;;;;2063468;28;20440;-65
2021/07/28 02:10:36;;;;;;;2.80;2.60;;;;;24.50;99925.00;;;;2065207;28;20571;-65
2021/07/28 02:11:37;;;;;;;3.63;2.60;;;;;24.40;99915.00;;;;2057976;28;20222;-65
2021/07/28 02:12:37;;;;;;;2.87;2.67;;;;;24.50;99918.00;;;;2057942;28;20219;-65
2021/07/28 02:13:37;;;;;;;2.97;2.77;;;;;24.40;99922.00;;;;2066438;28;20306;-65
2021/07/28 02:14:38;;;;;;;3.00;2.80;;;;;24.40;99925.00;;;;2067247;28;20229;-65
2021/07/28 02:15:38;;;;;;;3.07;2.77;;;;;24.40;99920.00;;;;2067062;28;20222;-65
2021/07/28 02:16:38;;;;;;;3.17;2.97;;;;;24.40;99920.00;;;;2066491;28;20211;-65
2021/07/28 02:17:39;;;;;;;3.00;2.80;;;;;24.40;99920.00;;;;2067781;28;20218;-65
2021/07/28 02:18:39;;;;;;;3.00;2.80;;;;;24.40;99922.00;;;;2066845;28;20238;-65
2021/07/28 02:19:39;;;;;;;3.13;2.93;;;;;24.40;99922.00;;;;2064385;28;20222;-65
2021/07/28 02:20:40;;;;;;;3.20;2.80;;;;;24.40;99918.00;;;;2066249;28;20210;-65
2021/07/28 02:21:40;;;;;;;2.87;2.60;;;;;24.40;99917.00;;;;2066529;28;20245;-65
2021/07/28 02:22:42;;;;;;;2.70;2.50;;;;;24.50;99919.00;;;;2067308;28;20269;-65
2021/07/28 02:23:42;;;;;;;5.70;2.80;;;;;24.40;99919.00;;;;2067546;28;20222;-65
2021/07/28 02:24:43;;;;;;;3.43;3.23;;;;;24.40;99926.00;;;;2067841;28;20227;-65
2021/07/28 02:25:43;;;;;;;2.83;2.63;;;;;24.40;99924.00;;;;2067733;28;20198;-65
2021/07/28 02:26:43;;;;;;;2.80;2.60;;;;;24.40;99916.00;;;;2058763;28;20207;-65
2021/07/28 02:27:44;;;;;;;2.90;2.70;;;;;24.40;99921.00;;;;2058392;28;20195;-65
2021/07/28 02:28:44;;;;;;;2.73;2.53;;;;;24.40;99919.00;;;;2066914;28;20198;-65
2021/07/28 02:29:44;;;;;;;2.93;2.73;;;;;24.40;99913.00;;;;2060757;28;20207;-65
2021/07/28 02:30:45;;;;;;;2.70;2.50;;;;;24.40;99916.00;;;;2066233;28;20325;-65
2021/07/28 02:31:45;;;;;;;2.73;2.53;;;;;24.40;99925.00;;;;2066901;28;20352;-65
2021/07/28 02:32:46;;;;;;;3.20;2.90;;;;;24.40;99915.00;;;;2066649;28;20206;-65
2021/07/28 02:33:46;;;;;;;2.60;2.40;;;;;24.40;99923.00;;;;2066669;28;20206;-65
2021/07/28 02:34:46;;;;;;;3.00;2.80;;;;;24.40;99913.00;;;;2069238;28;20215;-65
2021/07/28 02:35:47;;;;;;;3.37;3.07;;;;;24.40;99914.00;;;;2065336;28;21102;-65
2021/07/28 02:36:47;;;;;;;2.70;2.50;;;;;24.40;99915.00;;;;2059598;28;20725;-65
2021/07/28 02:37:47;;;;;;;3.00;2.70;;;;;24.40;99920.00;;;;2061030;28;20701;-65
2021/07/28 02:38:48;;;;;;;3.00;2.80;;;;;24.40;99918.00;;;;2056774;28;20235;-65
2021/07/28 02:39:48;;;;;;;3.17;2.83;;;;;24.40;99921.00;;;;2059256;28;20215;-64
2021/07/28 02:40:48;;;;;;;2.70;2.50;;;;;24.40;99914.00;;;;2058297;28;20225;-65
2021/07/28 02:41:49;;;;;;;2.83;2.63;;;;;24.40;99926.00;;;;2058876;28;20228;-65
2021/07/28 02:42:49;;;;;;;2.80;2.60;;;;;24.40;99917.00;;;;2058594;28;20571;-65
2021/07/28 02:43:49;;;;;;;2.73;2.53;;;;;24.40;99918.00;;;;2060696;28;21786;-65
2021/07/28 02:44:50;;;;;;;2.93;2.73;;;;;24.40;99922.00;;;;2060235;28;20246;-65
2021/07/28 02:45:50;;;;;;;3.20;3.00;;;;;24.40;99922.00;;;;2047294;28;20240;-65
2021/07/28 02:46:50;;;;;;;2.90;2.70;;;;;24.40;99915.00;;;;2046634;28;20216;-65
2021/07/28 02:47:50;;;;;;;3.20;2.93;;;;;24.40;99922.00;;;;2057893;28;20243;-65
2021/07/28 02:48:51;;;;;;;2.80;2.60;;;;;24.40;99919.00;;;;2058263;28;20219;-65
2021/07/28 02:49:51;;;;;;;3.30;3.00;;;;;24.40;99921.00;;;;2059490;28;20228;-65
2021/07/28 02:50:51;;;;;;;2.97;2.77;;;;;24.40;99918.00;;;;2059030;28;20216;-65
2021/07/28 02:51:52;;;;;;;2.47;2.33;;;;;24.40;99924.00;;;;2059562;28;20215;-65
2021/07/28 02:52:52;;;;;;;3.17;2.97;;;;;24.40;99922.00;;;;2059274;28;20215;-65
2021/07/28 02:53:52;;;;;;;2.87;2.67;;;;;24.40;99914.00;;;;2058643;28;20214;-65
2021/07/28 02:54:53;;;;;;;2.90;2.70;;;;;24.40;99918.00;;;;2058754;28;20309;-65
2021/07/28 02:55:53;;;;;;;3.50;3.20;;;;;24.40;99923.00;;;;2058614;28;20254;-65
2021/07/28 02:56:54;;;;;;;3.10;2.90;;;;;24.40;99913.00;;;;2058686;28;20212;-65
2021/07/28 02:57:54;;;;;;;3.27;3.07;;;;;24.40;99909.00;;;;2059454;28;20222;-65
2021/07/28 02:58:54;;;;;;;3.30;3.00;;;;;24.40;99918.00;;;;2059392;28;20223;-65
2021/07/28 02:59:55;;;;;;;3.00;2.80;;;;;24.40;99913.00;;;;2058891;28;20250;-65
2021/07/28 03:00:55;;;;;;;2.80;2.60;;;;;24.40;99917.00;;;;2062200;28;20273;-65
2021/07/28 03:01:56;;;;;;;3.13;2.93;;;;;24.40;99909.00;;;;2060142;28;20280;-64
2021/07/28 03:02:56;;;;;;;2.60;2.40;;;;;24.40;99913.00;;;;2060718;28;20298;-65
2021/07/28 03:03:56;;;;;;;3.10;2.90;;;;;24.50;99918.00;;;;2058584;28;20215;-65
2021/07/28 03:04:57;;;;;;;2.90;2.70;;;;;24.40;99911.00;;;;2058714;28;20239;-65
2021/07/28 03:05:57;;;;;;;2.90;2.70;;;;;24.40;99909.00;;;;2058773;28;20253;-64
2021/07/28 03:06:57;;;;;;;3.30;3.00;;;;;24.40;99907.00;;;;2059505;28;20583;-65
2021/07/28 03:07:58;;;;;;;2.80;2.57;;;;;24.40;99913.00;;;;2059511;28;20216;-65
2021/07/28 03:08:58;;;;;;;2.77;2.57;;;;;24.40;99901.00;;;;2059445;28;20253;-65
2021/07/28 03:09:58;;;;;;;3.27;2.97;;;;;24.40;99902.00;;;;2059371;28;20211;-65
2021/07/28 03:10:59;;;;;;;2.93;2.73;;;;;24.40;99910.00;;;;2057985;28;20215;-65
2021/07/28 03:11:59;;;;;;;3.37;3.07;;;;;24.40;99904.00;;;;2058581;28;20222;-65
2021/07/28 03:13:00;;;;;;;3.20;2.90;;;;;24.40;99902.00;;;;2058584;28;20515;-65
2021/07/28 03:14:00;;;;;;;3.10;2.90;;;;;24.40;99906.00;;;;2058533;28;20219;-65
2021/07/28 03:15:00;;;;;;;3.07;2.67;;;;;24.40;99907.00;;;;2058847;28;20236;-65
2021/07/28 03:16:05;;;;;;;3.10;2.90;;;;;24.40;99916.00;;;;2058737;28;20307;-65
2021/07/28 03:17:06;;;;;;;2.80;2.60;;;;;24.40;99908.00;;;;2059277;28;20222;-65
2021/07/28 03:18:06;;;;;;;3.30;3.00;;;;;24.40;99910.00;;;;2059460;28;20207;-65
2021/07/28 03:19:06;;;;;;;3.10;2.90;;;;;24.40;99910.00;;;;2058699;28;20218;-65
2021/07/28 03:20:07;;;;;;;2.83;2.63;;;;;24.40;99906.00;;;;2058315;28;20223;-65
2021/07/28 03:21:07;;;;;;;2.73;2.53;;;;;24.40;99910.00;;;;2054640;28;20215;-65
2021/07/28 03:22:08;;;;;;;2.90;2.70;;;;;24.40;99913.00;;;;2058607;28;20706;-65
2021/07/28 03:23:08;;;;;;;3.40;3.20;;;;;24.40;99903.00;;;;2059285;28;20669;-65
2021/07/28 03:24:09;;;;;;;2.90;2.70;;;;;24.40;99896.00;;;;2059146;28;20224;-65
2021/07/28 03:25:09;;;;;;;2.80;2.60;;;;;24.40;99904.00;;;;2059390;28;20223;-65
2021/07/28 03:26:10;;;;;;;3.20;3.00;;;;;24.40;99905.00;;;;2059143;28;20415;-64
2021/07/28 03:27:10;;;;;;;3.33;3.13;;;;;24.40;99913.00;;;;2058874;28;20678;-65
2021/07/28 03:28:10;;;;;;;3.13;2.93;;;;;24.40;99903.00;;;;2058199;28;20222;-65
2021/07/28 03:29:12;;;;;;;2.83;2.63;;;;;24.40;99905.00;;;;2058538;28;20215;-65
2021/07/28 03:30:12;;;;;;;3.60;2.85;;;;;24.40;99897.00;;;;2059966;28;20504;-64
2021/07/28 03:31:13;;;;;;;2.90;2.70;;;;;24.40;99903.00;;;;2059750;28;20225;-65
2021/07/28 03:32:13;;;;;;;2.83;2.63;;;;;24.40;99896.00;;;;2059215;28;20216;-65
2021/07/28 03:33:13;;;;;;;3.40;3.10;;;;;24.40;99902.00;;;;2059307;28;20207;-65
2021/07/28 03:34:13;;;;;;;2.80;2.60;;;;;24.40;99909.00;;;;2059098;28;20634;-65
2021/07/28 03:35:14;;;;;;;2.87;2.67;;;;;24.40;99902.00;;;;2059274;28;20698;-65
2021/07/28 03:36:14;;;;;;;2.60;2.40;;;;;24.40;99901.00;;;;2058404;28;20690;-65
2021/07/28 03:37:14;;;;;;;2.80;2.60;;;;;24.40;99896.00;;;;2058654;28;20214;-65
2021/07/28 03:38:15;;;;;;;3.03;2.80;;;;;24.40;99891.00;;;;2058729;28;20219;-65
2021/07/28 03:39:15;;;;;;;2.77;2.57;;;;;24.40;99885.00;;;;2058115;28;20254;-65
2021/07/28 03:40:15;;;;;;;2.73;2.53;;;;;24.40;99902.00;;;;2058441;28;20224;-65
2021/07/28 03:41:16;;;;;;;3.33;3.10;;;;;24.40;99894.00;;;;2043271;28;20301;-65
2021/07/28 03:42:16;;;;;;;3.03;2.83;;;;;24.40;99893.00;;;;2044480;29;20217;-65
2021/07/28 03:43:16;;;;;;;3.70;3.40;;;;;24.40;99899.00;;;;2060899;28;20573;-65
2021/07/28 03:44:17;;;;;;;3.50;3.27;;;;;24.40;99896.00;;;;2060645;28;20698;-65
2021/07/28 03:45:17;;;;;;;3.20;3.00;;;;;24.40;99891.00;;;;2060195;28;20211;-65
2021/07/28 03:46:18;;;;;;;3.23;3.03;;;;;24.40;99897.00;;;;2060485;28;20251;-65
2021/07/28 03:47:18;;;;;;;2.80;2.60;;;;;24.40;99893.00;;;;2071386;28;20222;-65
2021/07/28 03:48:18;;;;;;;2.77;2.57;;;;;24.40;99895.00;;;;2068882;28;20305;-65
2021/07/28 03:49:19;;;;;;;3.00;2.80;;;;;24.40;99910.00;;;;2068187;28;20210;-65
2021/07/28 03:50:19;;;;;;;3.53;3.23;;;;;24.40;99903.00;;;;2067523;28;20225;-64
2021/07/28 03:51:19;;;;;;;3.30;3.00;;;;;24.40;99900.00;;;;2068154;28;20300;-64
2021/07/28 03:52:20;;;;;;;2.93;2.73;;;;;24.40;99896.00;;;;2067939;28;20214;-65
2021/07/28 03:53:20;;;;;;;3.00;2.80;;;;;24.40;99905.00;;;;2060005;28;20342;-65
2021/07/28 03:54:20;;;;;;;3.03;2.83;;;;;24.40;99899.00;;;;2060283;28;20211;-65
2021/07/28 03:55:21;;;;;;;2.63;2.43;;;;;24.40;99896.00;;;;2068726;28;20222;-65
2021/07/28 03:56:24;;;;;;;2.70;2.50;;;;;24.40;99897.00;;;;2068600;28;20221;-65
2021/07/28 03:57:24;;;;;;;3.50;3.20;;;;;24.40;99897.00;;;;2068064;28;20222;-65
2021/07/28 03:58:24;;;;;;;2.83;2.63;;;;;24.40;99897.00;;;;2067773;28;20218;-65
2021/07/28 03:59:25;;;;;;;3.37;3.10;;;;;24.40;99899.00;;;;2067831;28;20213;-65
2021/07/28 04:00:25;;;;;;;3.07;2.87;;;;;24.40;99896.00;;;;2066786;28;20219;-65
2021/07/28 04:01:26;;;;;;;2.90;2.70;;;;;24.40;99894.00;;;;2067665;28;20215;-65
2021/07/28 04:02:26;;;;;;;3.10;2.90;;;;;24.40;99899.00;;;;2068655;28;20686;-65
2021/07/28 04:03:26;;;;;;;3.60;3.30;;;;;24.40;99892.00;;;;2068605;28;20241;-65
2021/07/28 04:04:26;;;;;;;3.30;3.10;;;;;24.40;99902.00;;;;2068407;28;20218;-65
2021/07/28 04:05:27;;;;;;;3.30;3.00;;;;;24.40;99903.00;;;;2071241;28;20237;-65
2021/07/28 04:06:27;;;;;;;3.03;2.83;;;;;24.40;99897.00;;;;2070274;28;20296;-65
2021/07/28 04:07:28;;;;;;;2.90;2.70;;;;;24.40;99897.00;;;;2069664;28;20628;-65
2021/07/28 04:08:28;;;;;;;3.27;3.07;;;;;24.40;99885.00;;;;2068335;28;20591;-65
2021/07/28 04:09:28;;;;;;;3.10;2.90;;;;;24.40;99895.00;;;;2068218;28;20237;-65
2021/07/28 04:10:29;;;;;;;3.00;2.80;;;;;24.40;99891.00;;;;2067075;28;20236;-65
2021/07/28 04:11:29;;;;;;;3.23;3.03;;;;;24.40;99896.00;;;;2067490;28;20214;-65
2021/07/28 04:12:29;;;;;;;2.87;2.67;;;;;24.40;99897.00;;;;2067575;28;20646;-65
2021/07/28 04:13:30;;;;;;;2.93;2.73;;;;;24.40;99889.00;;;;2067608;28;20270;-65
2021/07/28 04:14:30;;;;;;;3.40;3.20;;;;;24.40;99890.00;;;;2058059;28;20211;-65
2021/07/28 04:15:30;;;;;;;2.83;2.63;;;;;24.40;99888.00;;;;2066280;28;20218;-65
2021/07/28 04:16:31;;;;;;;3.03;2.83;;;;;24.40;99896.00;;;;2059830;28;20401;-65
2021/07/28 04:17:31;;;;;;;3.37;3.17;;;;;24.40;99888.00;;;;2060021;28;20207;-65
2021/07/28 04:18:31;;;;;;;3.03;2.83;;;;;24.40;99891.00;;;;2060034;28;20214;-65
2021/07/28 04:19:32;;;;;;;3.40;3.20;;;;;24.40;99890.00;;;;2059908;28;20586;-65
2021/07/28 04:20:32;;;;;;;2.93;2.73;;;;;24.40;99888.00;;;;2059320;28;20222;-65
2021/07/28 04:21:32;;;;;;;3.27;2.97;;;;;24.40;99887.00;;;;2059939;28;20230;-65
2021/07/28 04:22:33;;;;;;;3.30;3.03;;;;;24.40;99893.00;;;;2060018;28;20203;-65
2021/07/28 04:23:33;;;;;;;3.10;2.90;;;;;24.40;99891.00;;;;2060526;28;20234;-65
2021/07/28 04:24:33;;;;;;;3.03;2.83;;;;;24.40;99894.00;;;;2060280;28;20206;-65
2021/07/28 04:25:34;;;;;;;3.00;2.80;;;;;24.40;99901.00;;;;2060531;28;20215;-65
2021/07/28 04:26:34;;;;;;;3.37;3.17;;;;;24.40;99899.00;;;;2060594;28;20265;-65
2021/07/28 04:27:34;;;;;;;2.97;2.70;;;;;24.40;99893.00;;;;2060446;28;20215;-65
2021/07/28 04:28:35;;;;;;;2.70;2.50;;;;;24.40;99905.00;;;;2059878;28;20212;-65
2021/07/28 04:29:35;;;;;;;3.50;3.30;;;;;24.40;99889.00;;;;2059619;28;20207;-65
2021/07/28 04:30:35;;;;;;;3.20;3.00;;;;;24.40;99900.00;;;;2058990;28;20281;-65
2021/07/28 04:31:36;;;;;;;2.97;2.77;;;;;24.40;99905.00;;;;2059878;28;20210;-65
2021/07/28 04:32:36;;;;;;;3.00;2.80;;;;;24.40;99897.00;;;;2060561;28;20574;-65
2021/07/28 04:33:36;;;;;;;2.70;2.50;;;;;24.40;99895.00;;;;2060673;28;20586;-65
2021/07/28 04:34:37;;;;;;;2.80;2.60;;;;;24.40;99895.00;;;;2060632;28;20218;-65
2021/07/28 04:35:37;;;;;;;2.97;2.77;;;;;24.40;99902.00;;;;2064005;28;20214;-65
2021/07/28 04:36:37;;;;;;;3.30;3.10;;;;;24.40;99900.00;;;;2060083;28;20243;-65
2021/07/28 04:37:38;;;;;;;3.73;3.30;;;;;24.40;99901.00;;;;2061211;28;20701;-65
2021/07/28 04:38:38;;;;;;;3.40;3.10;;;;;24.40;99898.00;;;;2051897;28;20255;-65
2021/07/28 04:39:38;;;;;;;2.63;2.43;;;;;24.40;99903.00;;;;2051974;28;20220;-65
2021/07/28 04:40:39;;;;;;;3.30;3.00;;;;;24.40;99903.00;;;;2059386;28;20227;-65
2021/07/28 04:41:39;;;;;;;3.30;3.00;;;;;24.40;99900.00;;;;2059771;28;20234;-65
2021/07/28 04:42:40;;;;;;;3.13;2.93;;;;;24.40;99902.00;;;;2059512;28;20222;-65
2021/07/28 04:43:41;;;;;;;2.90;2.70;;;;;24.40;99901.00;;;;2059697;28;20761;-65
2021/07/28 04:44:41;;;;;;;3.20;3.00;;;;;24.40;99900.00;;;;2059650;28;20207;-65
2021/07/28 04:45:41;;;;;;;2.90;2.70;;;;;24.40;99908.00;;;;2060316;28;20208;-65
2021/07/28 04:46:41;;;;;;;2.70;2.50;;;;;24.40;99906.00;;;;2060422;28;20203;-65
2021/07/28 04:47:42;;;;;;;3.00;2.80;;;;;24.40;99907.00;;;;2060421;28;20722;-65
2021/07/28 04:48:42;;;;;;;3.50;3.20;;;;;24.40;99908.00;;;;2060447;28;20642;-65
2021/07/28 04:49:42;;;;;;;3.10;2.90;;;;;24.40;99913.00;;;;2059844;28;20693;-65
2021/07/28 04:50:43;;;;;;;2.90;2.70;;;;;24.40;99909.00;;;;2059145;28;20239;-65
2021/07/28 04:51:43;;;;;;;2.93;2.73;;;;;24.40;99908.00;;;;2059372;28;20218;-65
2021/07/28 04:52:43;;;;;;;3.00;2.80;;;;;24.40;99914.00;;;;2058540;28;20212;-65
2021/07/28 04:53:45;;;;;;;3.20;2.90;;;;;24.40;99912.00;;;;2059546;28;20208;-65
2021/07/28 04:54:45;;;;;;;3.35;3.05;;;;;24.40;99912.00;;;;2060063;28;20204;-65
2021/07/28 04:55:55;;;;;;;3.33;3.10;;;;;24.40;99915.00;;;;2059958;28;20211;-65
2021/07/28 04:56:55;;;;;;;3.00;2.80;;;;;24.40;99914.00;;;;2059012;28;20298;-65
2021/07/28 04:57:57;;;;;;;2.90;2.70;;;;;24.40;99920.00;;;;2058753;28;20210;-64
2021/07/28 04:58:57;;;;;;;3.30;3.00;;;;;24.40;99912.00;;;;2059282;28;20215;-65
2021/07/28 04:59:57;;;;;;;3.63;3.33;;;;;24.40;99915.00;;;;2058840;28;20222;-65
2021/07/28 05:00:58;;;;;;;3.13;2.93;;;;;24.40;99912.00;;;;2058807;28;20219;-65
2021/07/28 05:01:58;;;;;;;3.30;3.00;;;;;24.40;99921.00;;;;2058072;28;20274;-65
2021/07/28 05:02:58;;;;;;;3.60;3.30;;;;;24.40;99921.00;;;;2059919;28;20275;-65
2021/07/28 05:03:59;;;;;;;2.90;2.70;;;;;24.40;99925.00;;;;2062922;28;20237;-65
2021/07/28 05:04:59;;;;;;;3.00;2.80;;;;;24.40;99918.00;;;;2062954;28;20219;-65
2021/07/28 05:06:00;;;;;;;3.13;2.93;;;;;24.40;99923.00;;;;2061060;28;20254;-65
2021/07/28 05:07:00;;;;;;;3.10;2.90;;;;;24.40;99930.00;;;;2060671;28;20730;-65
2021/07/28 05:08:00;;;;;;;3.63;3.33;;;;;24.40;99918.00;;;;2058781;28;20706;-65
2021/07/28 05:09:01;;;;;;;2.90;2.70;;;;;24.40;99921.00;;;;2059101;28;20242;-64